createdAt,value
2022-09-12T00:01:11.982Z,89.20
2022-09-12T00:04:14.096Z,89.43
2022-09-12T00:07:16.242Z,87.56
2022-09-12T00:10:18.589Z,89.06
2022-09-12T00:13:20.650Z,87.01
2022-09-12T00:16:24.489Z,86.29
2022-09-12T00:19:27.771Z,86.45
2022-09-12T00:22:29.848Z,86.75
2022-09-12T00:25:31.917Z,86.64
2022-09-12T00:28:35.611Z,86.79
2022-09-12T00:31:37.950Z,87.26
2022-09-12T00:34:40.071Z,86.14
2022-09-12T00:37:42.122Z,87.85
2022-09-12T00:40:44.736Z,86.83
2022-09-12T00:43:49.770Z,86.74
2022-09-12T00:47:22.506Z,87.09
2022-09-12T00:50:24.547Z,87.40
2022-09-12T00:53:26.587Z,87.49
2022-09-12T00:56:28.682Z,88.07
2022-09-12T00:59:39.906Z,87.92
2022-09-12T01:02:57.382Z,88.73
2022-09-12T01:06:12.007Z,87.76
2022-09-12T01:09:18.326Z,88.45
2022-09-12T01:12:20.447Z,87.51
2022-09-12T01:15:22.542Z,88.17
2022-09-12T01:18:42.210Z,88.35
2022-09-12T01:22:05.401Z,87.43
2022-09-12T01:25:36.488Z,86.70
2022-09-12T01:29:31.432Z,88.54
2022-09-12T01:32:43.710Z,87.12
2022-09-12T01:35:47.039Z,88.31
2022-09-12T01:39:01.492Z,86.80
2022-09-12T01:42:35.201Z,87.40
2022-09-12T01:46:13.447Z,86.93
2022-09-12T01:49:37.480Z,87.17
2022-09-12T01:53:14.670Z,85.85
2022-09-12T01:56:26.501Z,87.09
2022-09-12T01:59:35.120Z,86.35
2022-09-12T02:02:46.098Z,87.44
2022-09-12T02:05:53.686Z,88.40
2022-09-12T02:09:04.162Z,88.05
2022-09-12T02:12:06.601Z,87.96
2022-09-12T02:15:09.569Z,86.57
2022-09-12T02:18:14.500Z,86.25
2022-09-12T02:21:16.642Z,87.06
2022-09-12T02:24:19.118Z,87.15
2022-09-12T02:27:42.794Z,87.28
2022-09-12T02:31:10.679Z,87.38
2022-09-12T02:35:14.778Z,88.50
2022-09-12T02:38:38.168Z,88.52
2022-09-12T02:41:40.250Z,88.48
2022-09-12T02:44:42.411Z,89.15
2022-09-12T02:48:15.216Z,88.92
2022-09-12T02:51:22.887Z,89.65
2022-09-12T02:54:25.519Z,89.72
2022-09-12T02:57:27.579Z,90.38
2022-09-12T03:00:32.674Z,89.15
2022-09-12T03:03:53.286Z,89.55
2022-09-12T03:07:18.702Z,89.82
2022-09-12T03:10:46.667Z,89.24
2022-09-12T03:14:22.185Z,88.64
2022-09-12T03:17:48.383Z,88.54
2022-09-12T03:21:05.693Z,90.05
2022-09-12T03:24:19.520Z,89.88
2022-09-12T03:27:35.098Z,89.48
2022-09-12T03:30:42.247Z,90.21
2022-09-12T03:33:44.445Z,89.52
2022-09-12T03:36:46.614Z,88.96
2022-09-12T03:39:48.653Z,88.65
2022-09-12T03:42:50.831Z,87.90
2022-09-12T03:45:53.542Z,88.57
2022-09-12T03:48:55.715Z,88.55
2022-09-12T03:51:57.767Z,87.92
2022-09-12T03:54:59.818Z,86.25
2022-09-12T03:58:01.849Z,86.06
2022-09-12T04:01:14.550Z,85.36
2022-09-12T04:04:16.610Z,85.29
2022-09-12T04:07:18.689Z,85.51
2022-09-12T04:10:20.730Z,85.22
2022-09-12T04:13:22.796Z,84.89
2022-09-12T04:16:24.970Z,84.94
2022-09-12T04:19:27.466Z,84.18
2022-09-12T04:22:31.947Z,84.08
2022-09-12T04:25:33.988Z,85.06
2022-09-12T04:28:37.424Z,84.45
2022-09-12T04:31:39.528Z,84.89
2022-09-12T04:34:41.833Z,85.36
2022-09-12T04:37:44.261Z,85.31
2022-09-12T04:40:46.279Z,83.93
2022-09-12T04:43:51.273Z,85.07
2022-09-12T04:46:53.346Z,84.72
2022-09-12T04:49:55.419Z,84.74
2022-09-12T04:52:57.499Z,84.78
2022-09-12T04:56:07.031Z,84.36
2022-09-12T04:59:09.222Z,84.75
2022-09-12T05:02:11.328Z,85.16
2022-09-12T05:05:13.458Z,85.20
2022-09-12T05:08:15.483Z,84.83
2022-09-12T05:11:26.574Z,84.32
2022-09-12T05:14:33.126Z,84.56
2022-09-12T05:17:35.453Z,84.61
2022-09-12T05:20:37.503Z,84.30
2022-09-12T05:23:39.826Z,84.39
2022-09-12T05:26:41.866Z,84.35
2022-09-12T05:29:43.910Z,83.77
2022-09-12T05:32:45.940Z,84.28
2022-09-12T05:35:52.679Z,83.50
2022-09-12T05:38:54.846Z,83.65
2022-09-12T05:41:56.898Z,83.32
2022-09-12T05:44:59.010Z,83.30
2022-09-12T05:48:02.726Z,83.45
2022-09-12T05:51:08.858Z,83.52
2022-09-12T05:54:12.733Z,83.30
2022-09-12T05:57:14.839Z,82.97
2022-09-12T06:00:17.810Z,82.53
2022-09-12T06:03:19.830Z,83.06
2022-09-12T06:06:24.436Z,83.66
2022-09-12T06:09:28.079Z,83.58
2022-09-12T06:12:30.385Z,82.64
2022-09-12T06:15:33.119Z,83.08
2022-09-12T06:18:35.845Z,82.19
2022-09-12T06:21:38.850Z,82.46
2022-09-12T06:24:40.903Z,82.95
2022-09-12T06:27:43.042Z,82.37
2022-09-12T06:30:45.110Z,82.58
2022-09-12T06:33:50.106Z,82.56
2022-09-12T06:36:52.158Z,82.31
2022-09-12T06:39:54.210Z,82.77
2022-09-12T06:42:56.312Z,81.90
2022-09-12T06:46:08.772Z,81.54
2022-09-12T06:49:11.378Z,81.46
2022-09-12T06:52:13.402Z,81.60
2022-09-12T06:55:19.823Z,81.35
2022-09-12T06:58:23.047Z,82.55
2022-09-12T07:01:29.144Z,81.93
2022-09-12T07:04:33.653Z,81.75
2022-09-12T07:07:36.018Z,81.08
2022-09-12T07:10:38.074Z,81.26
2022-09-12T07:13:40.970Z,80.26
2022-09-12T07:16:43.196Z,80.52
2022-09-12T07:19:45.365Z,80.27
2022-09-12T07:22:47.606Z,80.22
2022-09-12T07:25:54.457Z,79.07
2022-09-12T07:29:12.851Z,78.01
2022-09-12T07:32:19.720Z,77.38
2022-09-12T07:35:21.876Z,79.75
2022-09-12T07:38:24.015Z,77.58
2022-09-12T07:41:31.115Z,75.98
2022-09-12T07:44:33.247Z,75.31
2022-09-12T07:47:35.350Z,76.92
2022-09-12T07:50:41.966Z,76.55
2022-09-12T07:53:47.079Z,75.61
2022-09-12T07:56:49.243Z,74.28
2022-09-12T07:59:53.170Z,72.75
2022-09-12T08:02:56.545Z,71.95
2022-09-12T08:06:09.255Z,72.92
2022-09-12T08:09:12.920Z,72.62
2022-09-12T08:12:16.607Z,72.67
2022-09-12T08:15:20.045Z,74.13
2022-09-12T08:18:22.113Z,73.31
2022-09-12T08:21:26.849Z,73.42
2022-09-12T08:24:29.055Z,72.84
2022-09-12T08:27:31.211Z,73.58
2022-09-12T08:30:33.271Z,75.42
2022-09-12T08:33:35.528Z,74.93
2022-09-12T08:36:37.771Z,75.17
2022-09-12T08:39:39.966Z,74.42
2022-09-12T08:43:07.633Z,74.42
2022-09-12T08:46:21.216Z,74.81
2022-09-12T08:49:39.566Z,74.57
2022-09-12T08:52:56.879Z,73.41
2022-09-12T08:56:03.822Z,72.83
2022-09-12T08:59:06.031Z,72.13
2022-09-12T09:02:54.363Z,70.51
2022-09-12T09:06:30.133Z,70.94
2022-09-12T09:09:59.480Z,69.90
2022-09-12T09:14:09.851Z,70.37
2022-09-12T09:17:15.880Z,69.60
2022-09-12T09:20:55.955Z,68.58
2022-09-12T09:24:04.624Z,69.19
2022-09-12T09:27:51.990Z,69.32
2022-09-12T09:30:54.161Z,69.74
2022-09-12T09:33:56.303Z,68.44
2022-09-12T09:37:10.283Z,69.19
2022-09-12T09:40:41.636Z,67.37
2022-09-12T09:43:43.935Z,68.53
2022-09-12T09:46:46.475Z,65.28
2022-09-12T09:49:48.595Z,66.63
2022-09-12T09:52:51.868Z,66.25
2022-09-12T09:55:54.979Z,65.43
2022-09-12T09:58:57.148Z,66.54
2022-09-12T10:02:13.931Z,64.81
2022-09-12T10:05:17.031Z,62.20
2022-09-12T10:08:26.400Z,60.74
2022-09-12T10:11:28.712Z,59.75
2022-09-12T10:14:39.698Z,60.70
2022-09-12T10:17:46.633Z,59.35
2022-09-12T10:20:49.798Z,60.32
2022-09-12T10:24:26.107Z,61.86
2022-09-12T10:27:32.365Z,60.94
2022-09-12T10:30:34.538Z,62.43
2022-09-12T10:33:52.718Z,59.35
2022-09-12T10:37:00.625Z,61.73
2022-09-12T10:40:04.370Z,59.81
2022-09-12T10:43:33.584Z,64.16
2022-09-12T10:46:35.691Z,64.14
2022-09-12T10:49:40.343Z,65.83
2022-09-12T10:52:42.419Z,66.90
2022-09-12T10:56:02.315Z,68.58
2022-09-12T10:59:44.953Z,66.69
2022-09-12T11:03:14.707Z,66.02
2022-09-12T11:06:19.036Z,66.46
2022-09-12T11:09:30.034Z,66.78
2022-09-12T11:12:50.402Z,68.19
2022-09-12T11:16:30.842Z,67.55
2022-09-12T11:19:51.113Z,68.11
2022-09-12T11:23:35.490Z,66.26
2022-09-12T11:27:05.534Z,66.07
2022-09-12T11:30:13.204Z,65.59
2022-09-12T11:33:32.192Z,61.27
2022-09-12T11:37:00.594Z,63.99
2022-09-12T11:40:20.190Z,63.46
2022-09-12T11:43:47.312Z,64.82
2022-09-12T11:46:51.971Z,63.10
2022-09-12T11:49:54.363Z,65.18
2022-09-12T11:53:05.892Z,63.83
2022-09-12T11:56:26.215Z,67.58
2022-09-12T11:59:39.356Z,72.17
2022-09-12T12:03:06.879Z,72.00
2022-09-12T12:06:29.026Z,71.53
2022-09-12T12:09:31.597Z,70.52
2022-09-12T12:12:33.682Z,69.50
2022-09-12T12:15:37.369Z,68.87
2022-09-12T12:18:39.552Z,69.01
2022-09-12T12:21:48.560Z,71.10
2022-09-12T12:25:29.001Z,71.13
2022-09-12T12:28:50.379Z,71.37
2022-09-12T12:32:04.219Z,70.27
2022-09-12T12:35:37.475Z,70.34
2022-09-12T12:38:40.465Z,70.77
2022-09-12T12:41:46.124Z,71.24
2022-09-12T12:44:50.130Z,73.11
2022-09-12T12:48:15.906Z,75.32
2022-09-12T12:51:37.060Z,74.29
2022-09-12T12:54:41.758Z,77.09
2022-09-12T12:57:51.358Z,76.38
2022-09-12T13:01:09.794Z,78.07
2022-09-12T13:04:18.971Z,78.67
2022-09-12T13:07:36.450Z,78.20
2022-09-12T13:10:38.723Z,77.07
2022-09-12T13:13:53.826Z,76.59
2022-09-12T13:16:59.382Z,76.33
2022-09-12T13:20:30.236Z,76.25
2022-09-12T13:23:32.796Z,77.22
2022-09-12T13:26:43.919Z,78.49
2022-09-12T13:29:45.954Z,79.74
2022-09-12T13:32:47.986Z,80.23
2022-09-12T13:36:13.401Z,78.88
2022-09-12T13:39:28.144Z,79.63
2022-09-12T13:42:41.564Z,78.01
2022-09-12T13:45:45.874Z,78.04
2022-09-12T13:48:48.113Z,77.37
2022-09-12T13:52:05.437Z,77.75
2022-09-12T13:55:18.611Z,76.76
2022-09-12T13:58:32.190Z,77.64
2022-09-12T14:01:45.479Z,77.91
2022-09-12T14:05:07.354Z,77.25
2022-09-12T14:08:10.055Z,77.27
2022-09-12T14:11:12.666Z,76.42
2022-09-12T14:14:29.425Z,77.15
2022-09-12T14:17:36.796Z,75.26
2022-09-12T14:20:39.557Z,75.37
2022-09-12T14:23:45.226Z,73.91
2022-09-12T14:26:47.483Z,73.64
2022-09-12T14:29:53.088Z,72.94
2022-09-12T14:33:10.302Z,73.50
2022-09-12T14:36:27.666Z,74.41
2022-09-12T14:39:38.860Z,73.48
2022-09-12T14:42:40.946Z,74.95
2022-09-12T14:45:43.009Z,74.96
2022-09-12T14:48:50.184Z,74.47
2022-09-12T14:51:52.293Z,73.77
2022-09-12T14:55:20.090Z,74.19
2022-09-12T14:58:22.490Z,73.91
2022-09-12T15:01:25.074Z,74.19
2022-09-12T15:04:45.285Z,74.65
2022-09-12T15:07:54.665Z,75.13
2022-09-12T15:10:57.452Z,74.41
2022-09-12T15:14:00.966Z,74.45
2022-09-12T15:17:03.059Z,73.48
2022-09-12T15:20:05.878Z,73.19
2022-09-12T15:23:15.749Z,72.48
2022-09-12T15:26:23.397Z,71.59
2022-09-12T15:29:25.559Z,70.58
2022-09-12T15:32:29.546Z,70.22
2022-09-12T15:35:31.942Z,68.85
2022-09-12T15:38:34.040Z,68.76
2022-09-12T15:41:37.763Z,68.22
2022-09-12T15:44:40.167Z,66.66
2022-09-12T15:47:42.295Z,66.47
2022-09-12T15:50:44.362Z,66.19
2022-09-12T15:53:46.952Z,64.53
2022-09-12T15:56:49.714Z,64.65
2022-09-12T15:59:51.770Z,63.32
2022-09-12T16:02:54.088Z,63.38
2022-09-12T16:06:01.776Z,63.56
2022-09-12T16:09:03.970Z,63.19
2022-09-12T16:12:06.531Z,63.92
2022-09-12T16:15:12.427Z,62.41
2022-09-12T16:18:14.635Z,60.11
2022-09-12T16:21:16.696Z,58.84
2022-09-12T16:24:18.750Z,51.99
2022-09-12T16:27:20.794Z,51.51
2022-09-12T16:30:22.946Z,48.94
2022-09-12T16:33:25.551Z,47.94
2022-09-12T16:36:27.658Z,46.37
2022-09-12T16:39:29.714Z,47.17
2022-09-12T16:42:32.157Z,45.42
2022-09-12T16:45:34.196Z,43.13
2022-09-12T16:48:36.368Z,44.31
2022-09-12T16:51:38.519Z,46.79
2022-09-12T16:54:40.780Z,46.64
2022-09-12T16:57:42.881Z,45.23
2022-09-12T17:00:44.928Z,44.92
2022-09-12T17:03:47.228Z,45.88
2022-09-12T17:06:49.307Z,44.90
2022-09-12T17:09:52.073Z,46.45
2022-09-12T17:12:54.179Z,48.17
2022-09-12T17:15:56.682Z,48.64
2022-09-12T17:18:58.799Z,50.60
2022-09-12T17:22:01.258Z,50.03
2022-09-12T17:25:03.535Z,50.98
2022-09-12T17:28:05.712Z,52.59
2022-09-12T17:31:10.221Z,60.63
2022-09-12T17:34:14.557Z,64.18
2022-09-12T17:37:17.739Z,65.74
2022-09-12T17:40:19.833Z,65.72
2022-09-12T17:43:21.892Z,66.32
2022-09-12T17:46:26.576Z,67.09
2022-09-12T17:49:28.670Z,67.83
2022-09-12T17:52:32.176Z,64.00
2022-09-12T17:55:43.756Z,65.02
2022-09-12T17:58:46.734Z,65.01
2022-09-12T18:02:11.063Z,64.88
2022-09-12T18:05:13.895Z,64.40
2022-09-12T18:08:16.267Z,64.69
2022-09-12T18:11:18.420Z,66.38
2022-09-12T18:14:20.581Z,66.79
2022-09-12T18:17:22.643Z,65.84
2022-09-12T18:20:25.211Z,68.06
2022-09-12T18:23:27.614Z,69.37
2022-09-12T18:26:30.463Z,69.83
2022-09-12T18:29:34.462Z,69.31
2022-09-12T18:32:37.021Z,69.80
2022-09-12T18:35:40.129Z,70.12
2022-09-12T18:38:44.086Z,71.93
2022-09-12T18:41:46.619Z,71.67
2022-09-12T18:44:48.911Z,71.93
2022-09-12T18:47:54.338Z,72.43
2022-09-12T18:51:09.171Z,73.35
2022-09-12T18:54:13.119Z,73.69
2022-09-12T18:57:15.174Z,73.36
2022-09-12T19:00:18.675Z,74.19
2022-09-12T19:03:20.709Z,74.67
2022-09-12T19:06:31.420Z,73.95
2022-09-12T19:09:34.031Z,74.08
2022-09-12T19:12:36.099Z,74.09
2022-09-12T19:15:40.903Z,73.84
2022-09-12T19:18:43.066Z,73.11
2022-09-12T19:21:46.060Z,73.09
2022-09-12T19:24:48.230Z,72.63
2022-09-12T19:27:50.279Z,72.41
2022-09-12T19:30:53.597Z,72.51
2022-09-12T19:34:03.683Z,71.88
2022-09-12T19:37:05.723Z,70.83
2022-09-12T19:40:08.701Z,70.36
2022-09-12T19:43:10.956Z,70.31
2022-09-12T19:46:17.923Z,69.94
2022-09-12T19:49:20.071Z,70.51
2022-09-12T19:52:22.179Z,70.68
2022-09-12T19:55:24.238Z,70.00
2022-09-12T19:58:26.314Z,70.09
2022-09-12T20:01:28.916Z,69.13
2022-09-12T20:04:32.246Z,68.05
2022-09-12T20:07:34.330Z,68.51
2022-09-12T20:10:36.350Z,67.29
2022-09-12T20:13:38.512Z,66.37
2022-09-12T20:16:40.562Z,66.86
2022-09-12T20:19:42.598Z,67.70
2022-09-12T20:22:44.625Z,69.17
2022-09-12T20:25:46.678Z,70.00
2022-09-12T20:28:48.874Z,72.44
2022-09-12T20:31:51.065Z,72.52
2022-09-12T20:34:53.168Z,74.36
2022-09-12T20:37:55.263Z,73.23
2022-09-12T20:40:57.331Z,74.02
2022-09-12T20:43:59.542Z,75.34
2022-09-12T20:47:01.606Z,74.77
2022-09-12T20:50:04.184Z,73.80
2022-09-12T20:53:06.205Z,74.40
2022-09-12T20:56:08.376Z,75.27
2022-09-12T20:59:11.734Z,73.79
2022-09-12T21:02:14.825Z,72.82
2022-09-12T21:05:17.167Z,71.95
2022-09-12T21:08:19.224Z,72.56
2022-09-12T21:11:21.368Z,72.16
2022-09-12T21:14:23.447Z,71.80
2022-09-12T21:17:25.516Z,71.43
2022-09-12T21:20:27.549Z,71.87
2022-09-12T21:23:29.647Z,71.53
2022-09-12T21:26:32.103Z,71.94
2022-09-12T21:29:34.495Z,71.92
2022-09-12T21:32:36.678Z,71.43
2022-09-12T21:35:39.023Z,71.24
2022-09-12T21:38:41.090Z,71.44
2022-09-12T21:41:43.200Z,72.12
2022-09-12T21:44:45.237Z,72.84
2022-09-12T21:47:47.263Z,72.50
2022-09-12T21:50:52.538Z,71.60
2022-09-12T21:53:54.643Z,71.27
2022-09-12T21:56:56.671Z,71.63
2022-09-12T21:59:58.882Z,71.52
2022-09-12T22:03:01.359Z,72.35
2022-09-12T22:06:05.683Z,72.94
2022-09-12T22:09:07.741Z,72.91
2022-09-12T22:12:09.811Z,74.33
2022-09-12T22:15:38.462Z,72.76
2022-09-12T22:18:37.483Z,71.65
2022-09-12T22:21:59.511Z,71.50
2022-09-12T22:25:01.774Z,71.93
2022-09-12T22:28:03.872Z,70.43
2022-09-12T22:31:06.684Z,70.13
2022-09-12T22:34:08.823Z,70.68
2022-09-12T22:37:11.995Z,71.00
2022-09-12T22:40:14.386Z,73.07
2022-09-12T22:43:16.781Z,72.92
2022-09-12T22:46:19.085Z,74.38
2022-09-12T22:49:21.171Z,74.21
2022-09-12T22:52:24.747Z,74.67
2022-09-12T22:55:26.803Z,74.38
2022-09-12T22:58:29.014Z,76.11
2022-09-12T23:01:31.891Z,75.35
2022-09-12T23:04:34.020Z,75.27
2022-09-12T23:07:36.091Z,73.43
2022-09-12T23:10:38.466Z,73.98
2022-09-12T23:13:43.199Z,74.33
2022-09-12T23:16:45.325Z,75.34
2022-09-12T23:19:47.420Z,76.17
2022-09-12T23:22:49.927Z,76.96
2022-09-12T23:26:17.988Z,77.38
2022-09-12T23:29:20.098Z,78.01
2022-09-12T23:32:22.207Z,78.01
2022-09-12T23:49:28.160Z,78.50
2022-09-12T23:52:30.256Z,78.01
2022-09-12T23:55:32.344Z,78.32
2022-09-12T23:58:34.486Z,80.20
